createdAt,value
2019-04-11T00:00:35.924Z,0.00
2019-04-11T00:01:42.072Z,0.00
2019-04-11T00:02:40.911Z,0.00
2019-04-11T00:03:35.859Z,0.00
2019-04-11T00:04:35.858Z,0.00
2019-04-11T00:05:36.985Z,0.00
2019-04-11T00:06:35.973Z,0.00
2019-04-11T00:07:36.363Z,0.00
2019-04-11T00:08:37.092Z,0.00
2019-04-11T00:09:35.789Z,0.00
2019-04-11T00:10:35.785Z,0.00
2019-04-11T00:11:35.853Z,0.00
2019-04-11T00:12:36.785Z,0.00
2019-04-11T00:13:36.505Z,0.00
2019-04-11T00:14:35.914Z,0.00
2019-04-11T00:15:36.952Z,0.00
2019-04-11T00:16:35.747Z,0.00
2019-04-11T00:17:36.302Z,0.00
2019-04-11T00:18:35.725Z,0.00
2019-04-11T00:19:35.881Z,0.00
2019-04-11T00:20:36.069Z,0.00
2019-04-11T00:21:35.672Z,0.00
2019-04-11T00:22:35.671Z,0.00
2019-04-11T00:23:36.470Z,0.00
2019-04-11T00:24:36.683Z,0.00
2019-04-11T00:25:35.918Z,0.00
2019-04-11T00:26:36.178Z,0.00
2019-04-11T00:27:35.614Z,0.00
2019-04-11T00:28:35.587Z,0.00
2019-04-11T00:29:36.587Z,0.00
2019-04-11T00:30:36.539Z,0.00
2019-04-11T00:31:35.557Z,0.00
2019-04-11T00:32:35.899Z,0.00
2019-04-11T00:33:35.543Z,0.00
2019-04-11T00:34:35.561Z,0.00
2019-04-11T00:35:35.641Z,0.00
2019-04-11T00:36:36.652Z,0.00
2019-04-11T00:37:35.489Z,0.00
2019-04-11T00:38:36.142Z,0.00
2019-04-11T00:39:35.468Z,0.00
2019-04-11T00:40:35.530Z,0.00
2019-04-11T00:41:35.463Z,0.00
2019-04-11T00:42:36.718Z,0.00
2019-04-11T00:43:39.029Z,0.00
2019-04-11T00:44:35.433Z,0.00
2019-04-11T00:45:35.934Z,0.00
2019-04-11T00:46:36.243Z,0.00
2019-04-11T00:47:35.399Z,0.00
2019-04-11T00:48:35.632Z,0.00
2019-04-11T00:49:35.376Z,0.00
2019-04-11T00:50:35.349Z,0.00
2019-04-11T00:51:36.135Z,0.00
2019-04-11T00:52:35.324Z,0.00
2019-04-11T00:53:36.163Z,0.00
2019-04-11T00:54:35.335Z,0.00
2019-04-11T00:55:35.693Z,0.00
2019-04-11T00:56:35.329Z,0.00
2019-04-11T00:57:35.274Z,0.00
2019-04-11T00:58:36.024Z,0.00
2019-04-11T00:59:35.276Z,0.00
2019-04-11T01:00:35.504Z,0.00
2019-04-11T01:01:35.706Z,0.00
2019-04-11T01:02:35.822Z,0.00
2019-04-11T01:03:35.998Z,0.00
2019-04-11T01:04:35.188Z,0.00
2019-04-11T01:05:35.172Z,0.00
2019-04-11T01:06:36.414Z,0.00
2019-04-11T01:07:35.359Z,0.00
2019-04-11T01:08:35.678Z,0.00
2019-04-11T01:09:35.141Z,0.00
2019-04-11T01:10:35.228Z,0.00
2019-04-11T01:11:36.388Z,0.00
2019-04-11T01:12:35.151Z,0.00
2019-04-11T01:13:44.577Z,0.00
2019-04-11T01:14:37.251Z,0.00
2019-04-11T01:15:35.079Z,0.00
2019-04-11T01:16:35.066Z,0.00
2019-04-11T01:17:35.054Z,0.00
2019-04-11T01:18:36.110Z,0.00
2019-04-11T01:19:35.172Z,0.00
2019-04-11T01:20:35.536Z,0.00
2019-04-11T01:21:35.009Z,0.00
2019-04-11T01:22:35.118Z,0.00
2019-04-11T01:23:35.364Z,0.00
2019-04-11T01:24:35.614Z,0.00
2019-04-11T01:25:34.995Z,0.00
2019-04-11T01:26:35.102Z,0.00
2019-04-11T01:27:36.173Z,0.00
2019-04-11T01:28:34.924Z,0.00
2019-04-11T01:29:35.654Z,0.00
2019-04-11T01:30:34.940Z,0.00
2019-04-11T01:31:35.899Z,0.00
2019-04-11T01:32:34.889Z,0.00
2019-04-11T01:33:35.845Z,0.00
2019-04-11T01:34:35.015Z,0.00
2019-04-11T01:35:34.844Z,0.00
2019-04-11T01:36:35.352Z,0.00
2019-04-11T01:37:35.595Z,0.00
2019-04-11T01:38:34.825Z,0.00
2019-04-11T01:39:35.117Z,0.00
2019-04-11T01:40:35.938Z,0.00
2019-04-11T01:41:34.773Z,0.00
2019-04-11T01:42:35.599Z,0.00
2019-04-11T01:43:35.716Z,0.00
2019-04-11T01:44:34.756Z,0.00
2019-04-11T01:45:35.827Z,0.00
2019-04-11T01:46:34.736Z,0.00
2019-04-11T01:47:35.880Z,0.00
2019-04-11T01:48:35.414Z,0.00
2019-04-11T01:49:34.710Z,0.00
2019-04-11T01:50:34.975Z,0.00
2019-04-11T01:51:35.809Z,0.00
2019-04-11T01:52:34.701Z,0.00
2019-04-11T01:53:35.233Z,0.00
2019-04-11T01:54:35.472Z,0.00
2019-04-11T01:55:34.837Z,0.00
2019-04-11T01:56:34.614Z,0.00
2019-04-11T01:57:34.599Z,0.00
2019-04-11T01:58:35.097Z,0.00
2019-04-11T01:59:35.440Z,0.00
2019-04-11T02:00:34.582Z,0.00
2019-04-11T02:01:34.832Z,0.00
2019-04-11T02:02:34.756Z,0.00
2019-04-11T02:03:35.061Z,0.00
2019-04-11T02:04:34.527Z,0.00
2019-04-11T02:05:35.055Z,0.00
2019-04-11T02:06:34.509Z,0.00
2019-04-11T02:07:34.493Z,0.00
2019-04-11T02:08:35.527Z,0.00
2019-04-11T02:09:34.470Z,0.00
2019-04-11T02:10:34.976Z,0.00
2019-04-11T02:11:34.452Z,0.00
2019-04-11T02:12:35.264Z,0.00
2019-04-11T02:13:34.425Z,0.00
2019-04-11T02:14:35.439Z,0.00
2019-04-11T02:15:34.573Z,0.00
2019-04-11T02:16:34.868Z,0.00
2019-04-11T02:17:34.919Z,0.00
2019-04-11T02:18:35.214Z,0.00
2019-04-11T02:19:34.528Z,0.00
2019-04-11T02:20:34.355Z,0.00
2019-04-11T02:21:34.331Z,0.00
2019-04-11T02:22:34.740Z,0.00
2019-04-11T02:23:35.096Z,0.00
2019-04-11T02:24:34.322Z,0.00
2019-04-11T02:25:34.496Z,0.00
2019-04-11T02:26:35.535Z,0.00
2019-04-11T02:27:34.817Z,0.00
2019-04-11T02:28:34.920Z,0.00
2019-04-11T02:29:35.364Z,0.00
2019-04-11T02:30:36.208Z,0.00
2019-04-11T02:31:34.951Z,0.00
2019-04-11T02:32:35.001Z,0.00
2019-04-11T02:33:34.869Z,0.00
2019-04-11T02:34:35.222Z,0.00
2019-04-11T02:35:35.347Z,0.00
2019-04-11T02:36:35.716Z,0.00
2019-04-11T02:37:34.560Z,0.00
2019-04-11T02:38:34.774Z,0.00
2019-04-11T02:39:35.588Z,0.00
2019-04-11T02:40:34.121Z,0.00
2019-04-11T02:41:35.895Z,0.00
2019-04-11T02:42:35.094Z,0.00
2019-04-11T02:43:34.969Z,0.00
2019-04-11T02:44:53.214Z,0.00
2019-04-11T02:45:49.692Z,0.00
2019-04-11T02:46:43.445Z,0.00
2019-04-11T02:47:37.379Z,0.00
2019-04-11T02:48:35.523Z,0.00
2019-04-11T02:49:35.222Z,0.00
2019-04-11T02:50:34.941Z,0.00
2019-04-11T02:51:34.568Z,0.00
2019-04-11T02:52:35.394Z,0.00
2019-04-11T02:53:34.443Z,0.00
2019-04-11T02:54:34.295Z,0.00
2019-04-11T02:55:35.643Z,0.00
2019-04-11T02:56:35.740Z,0.00
2019-04-11T02:57:34.386Z,0.00
2019-04-11T02:58:34.633Z,0.00
2019-04-11T02:59:34.532Z,0.00
2019-04-11T03:00:35.948Z,0.00
2019-04-11T03:01:34.729Z,0.00
2019-04-11T03:02:34.721Z,0.00
2019-04-11T03:03:34.194Z,0.00
2019-04-11T03:04:34.732Z,0.00
2019-04-11T03:05:35.172Z,0.00
2019-04-11T03:06:35.395Z,0.00
2019-04-11T03:07:34.159Z,0.00
2019-04-11T03:08:36.140Z,0.00
2019-04-11T03:09:35.265Z,0.00
2019-04-11T03:10:35.503Z,0.00
2019-04-11T03:11:34.632Z,0.00
2019-04-11T03:12:35.582Z,0.00
2019-04-11T03:13:35.338Z,0.00
2019-04-11T03:14:54.396Z,0.00
2019-04-11T03:15:53.605Z,0.00
2019-04-11T03:16:46.473Z,0.00
2019-04-11T03:17:40.354Z,0.00
2019-04-11T03:18:52.934Z,0.00
2019-04-11T03:19:49.219Z,0.00
2019-04-11T03:20:43.564Z,0.00
2019-04-11T03:21:39.244Z,0.00
2019-04-11T03:22:34.987Z,0.00
2019-04-11T03:23:35.417Z,0.00
2019-04-11T03:24:35.774Z,0.00
2019-04-11T03:25:33.905Z,0.00
2019-04-11T03:26:35.436Z,0.00
2019-04-11T03:27:34.935Z,0.00
2019-04-11T03:28:35.886Z,0.00
2019-04-11T03:29:35.616Z,0.00
2019-04-11T03:30:48.810Z,0.00
2019-04-11T03:32:14.004Z,0.00
2019-04-11T03:33:27.735Z,0.00
2019-04-11T03:36:21.171Z,0.00
2019-04-11T03:37:13.598Z,0.00
2019-04-11T03:37:58.682Z,0.00
2019-04-11T03:38:55.139Z,0.00
2019-04-11T03:39:57.410Z,0.00
2019-04-11T03:40:54.725Z,0.00
2019-04-11T03:41:52.371Z,0.00
2019-04-11T03:42:46.339Z,0.00
2019-04-11T03:43:46.259Z,0.00
2019-04-11T03:44:40.200Z,0.00
2019-04-11T03:45:56.262Z,0.00
2019-04-11T03:46:49.212Z,0.00
2019-04-11T03:47:45.847Z,0.00
2019-04-11T03:48:49.640Z,0.00
2019-04-11T03:49:44.183Z,0.00
2019-04-11T03:50:36.727Z,0.00
2019-04-11T03:51:34.032Z,0.00
2019-04-11T03:52:34.743Z,0.00
2019-04-11T03:53:34.388Z,0.00
2019-04-11T03:54:34.239Z,0.00
2019-04-11T03:55:34.870Z,0.00
2019-04-11T03:56:34.915Z,0.00
2019-04-11T03:57:34.264Z,0.00
2019-04-11T03:58:33.596Z,0.00
2019-04-11T03:59:34.259Z,0.00
2019-04-11T04:00:36.251Z,0.00
2019-04-11T04:01:34.943Z,0.00
2019-04-11T04:02:34.719Z,0.00
2019-04-11T04:03:34.230Z,0.00
2019-04-11T04:04:35.079Z,0.00
2019-04-11T04:05:36.287Z,0.00
2019-04-11T04:06:41.506Z,0.00
2019-04-11T04:07:33.948Z,0.00
2019-04-11T04:08:34.247Z,0.00
2019-04-11T04:09:33.149Z,0.00
2019-04-11T04:10:34.069Z,0.00
2019-04-11T04:11:34.639Z,0.00
2019-04-11T04:12:33.617Z,0.00
2019-04-11T04:13:34.437Z,0.00
2019-04-11T04:14:34.588Z,0.00
2019-04-11T04:15:44.335Z,0.00
2019-04-11T04:16:40.763Z,0.00
2019-04-11T04:17:35.203Z,0.00
2019-04-11T04:18:34.115Z,0.00
2019-04-11T04:19:33.050Z,0.00
2019-04-11T04:20:33.159Z,0.00
2019-04-11T04:21:33.305Z,0.00
2019-04-11T04:22:32.981Z,0.00
2019-04-11T04:23:33.658Z,4.00
2019-04-11T04:24:38.812Z,4.00
2019-04-11T04:25:34.719Z,0.00
2019-04-11T04:26:33.721Z,4.00
2019-04-11T04:27:34.601Z,4.00
2019-04-11T04:28:33.866Z,8.00
2019-04-11T04:29:36.255Z,4.00
2019-04-11T04:30:33.660Z,4.00
2019-04-11T04:31:32.980Z,8.00
2019-04-11T04:32:33.079Z,8.00
2019-04-11T04:33:35.418Z,8.00
2019-04-11T04:34:33.870Z,12.00
2019-04-11T04:35:33.835Z,12.00
2019-04-11T04:36:33.393Z,12.00
2019-04-11T04:37:34.622Z,12.00
2019-04-11T04:38:33.784Z,12.00
2019-04-11T04:39:34.330Z,16.00
2019-04-11T04:40:49.600Z,20.00
2019-04-11T04:41:42.829Z,20.00
2019-04-11T04:42:40.210Z,20.00
2019-04-11T04:43:34.759Z,20.00
2019-04-11T04:44:33.421Z,24.00
2019-04-11T04:45:54.095Z,24.00
2019-04-11T04:46:51.835Z,28.00
2019-04-11T04:47:42.342Z,32.00
2019-04-11T04:48:34.545Z,32.00
2019-04-11T04:49:34.326Z,36.00
2019-04-11T04:50:34.216Z,36.00
2019-04-11T04:51:32.684Z,40.00
2019-04-11T04:52:33.982Z,52.00
2019-04-11T04:53:33.678Z,64.00
2019-04-11T04:54:33.427Z,68.00
2019-04-11T04:55:32.746Z,68.00
2019-04-11T04:56:34.776Z,72.00
2019-04-11T04:57:33.904Z,80.00
2019-04-11T04:58:33.917Z,60.00
2019-04-11T04:59:34.023Z,64.00
2019-04-11T05:00:32.578Z,68.00
2019-04-11T05:01:32.576Z,72.00
2019-04-11T05:02:33.145Z,76.00
2019-04-11T05:03:34.131Z,80.00
2019-04-11T05:04:33.734Z,88.00
2019-04-11T05:05:33.814Z,92.00
2019-04-11T05:06:32.556Z,96.00
2019-04-11T05:07:37.888Z,100.00
2019-04-11T05:08:34.735Z,100.00
2019-04-11T05:09:33.906Z,100.00
2019-04-11T05:10:32.804Z,104.00
2019-04-11T05:11:33.840Z,112.00
2019-04-11T05:12:32.441Z,108.00
2019-04-11T05:13:32.994Z,112.00
2019-04-11T05:14:32.408Z,116.00
2019-04-11T05:15:32.508Z,128.00
2019-04-11T05:16:33.380Z,132.00
2019-04-11T05:17:32.594Z,140.00
2019-04-11T05:18:32.376Z,152.00
2019-04-11T05:19:32.352Z,160.00
2019-04-11T05:20:32.337Z,164.00
2019-04-11T05:21:33.109Z,164.00
2019-04-11T05:22:33.187Z,168.00
2019-04-11T05:23:32.312Z,168.00
2019-04-11T05:24:32.309Z,172.00
2019-04-11T05:25:32.739Z,176.00
2019-04-11T05:26:33.306Z,180.00
2019-04-11T05:27:33.260Z,184.00
2019-04-11T05:28:32.248Z,204.00
2019-04-11T05:29:33.304Z,216.00
2019-04-11T05:30:33.274Z,220.00
2019-04-11T05:31:32.350Z,224.00
2019-04-11T05:32:33.374Z,228.00
2019-04-11T05:33:32.188Z,236.00
2019-04-11T05:34:32.987Z,244.00
2019-04-11T05:35:33.000Z,264.00
2019-04-11T05:36:32.369Z,292.00
2019-04-11T05:37:33.265Z,316.00
2019-04-11T05:38:32.783Z,344.00
2019-04-11T05:39:32.131Z,372.00
2019-04-11T05:40:32.487Z,376.00
2019-04-11T05:41:33.467Z,396.00
2019-04-11T05:42:33.320Z,412.00
2019-04-11T05:43:37.339Z,420.00
2019-04-11T05:44:35.293Z,424.00
2019-04-11T05:45:32.071Z,428.00
2019-04-11T05:46:40.861Z,440.00
2019-04-11T05:47:33.079Z,444.00
2019-04-11T05:48:32.053Z,444.00
2019-04-11T05:49:36.611Z,452.00
2019-04-11T05:50:34.088Z,460.00
2019-04-11T05:51:39.207Z,472.00
2019-04-11T05:52:34.182Z,472.00
2019-04-11T05:53:33.562Z,464.00
2019-04-11T05:54:41.826Z,444.00
2019-04-11T05:55:34.136Z,444.00
2019-04-11T05:56:31.936Z,452.00
2019-04-11T05:57:36.736Z,452.00
2019-04-11T05:58:32.956Z,448.00
2019-04-11T05:59:32.734Z,448.00
2019-04-11T06:00:32.597Z,448.00
2019-04-11T06:01:31.873Z,460.00
2019-04-11T06:02:33.109Z,464.00
2019-04-11T06:03:32.315Z,488.00
2019-04-11T06:04:32.368Z,524.00
2019-04-11T06:05:33.383Z,544.00
2019-04-11T06:06:36.114Z,560.00
2019-04-11T06:07:32.837Z,572.00
2019-04-11T06:08:32.321Z,604.00
2019-04-11T06:09:36.032Z,620.00
2019-04-11T06:10:33.799Z,624.00
2019-04-11T06:11:31.766Z,628.00
2019-04-11T06:12:31.821Z,624.00
2019-04-11T06:13:32.210Z,604.00
2019-04-11T06:14:31.733Z,608.00
2019-04-11T06:15:31.751Z,604.00
2019-04-11T06:16:44.919Z,596.00
2019-04-11T06:17:32.794Z,596.00
2019-04-11T06:18:36.139Z,596.00
2019-04-11T06:19:33.459Z,604.00
2019-04-11T06:20:31.693Z,620.00
2019-04-11T06:21:31.771Z,648.00
2019-04-11T06:22:31.857Z,680.00
2019-04-11T06:23:31.815Z,684.00
2019-04-11T06:24:32.169Z,700.00
2019-04-11T06:25:33.268Z,712.00
2019-04-11T06:26:32.392Z,712.00
2019-04-11T06:27:33.671Z,652.00
2019-04-11T06:28:31.704Z,596.00
2019-04-11T06:29:31.638Z,568.00
2019-04-11T06:30:32.648Z,536.00
2019-04-11T06:31:31.799Z,512.00
2019-04-11T06:32:31.939Z,500.00
2019-04-11T06:33:32.188Z,568.00
2019-04-11T06:34:31.635Z,660.00
2019-04-11T06:35:32.357Z,708.00
2019-04-11T06:36:32.047Z,704.00
2019-04-11T06:37:31.918Z,692.00
2019-04-11T06:38:32.446Z,688.00
2019-04-11T06:39:31.531Z,680.00
2019-04-11T06:40:32.598Z,664.00
2019-04-11T06:41:32.663Z,680.00
2019-04-11T06:42:31.905Z,720.00
2019-04-11T06:43:32.110Z,740.00
2019-04-11T06:44:32.094Z,760.00
2019-04-11T06:45:31.504Z,784.00
2019-04-11T06:46:31.453Z,796.00
2019-04-11T06:47:32.550Z,812.00
2019-04-11T06:48:31.793Z,828.00
2019-04-11T06:49:31.358Z,828.00
2019-04-11T06:50:31.364Z,784.00
2019-04-11T06:51:32.442Z,728.00
2019-04-11T06:52:31.308Z,692.00
2019-04-11T06:53:32.177Z,676.00
2019-04-11T06:54:31.319Z,680.00
2019-04-11T06:55:31.275Z,696.00
2019-04-11T06:56:31.269Z,680.00
2019-04-11T06:57:32.103Z,660.00
2019-04-11T06:58:31.868Z,632.00
2019-04-11T06:59:32.293Z,608.00
2019-04-11T07:00:31.470Z,600.00
2019-04-11T07:01:31.270Z,608.00
2019-04-11T07:02:32.184Z,656.00
2019-04-11T07:03:32.420Z,732.00
2019-04-11T07:04:31.174Z,784.00
2019-04-11T07:05:31.164Z,840.00
2019-04-11T07:06:31.478Z,864.00
2019-04-11T07:07:32.783Z,908.00
2019-04-11T07:08:32.113Z,924.00
2019-04-11T07:09:31.146Z,896.00
2019-04-11T07:10:31.106Z,944.00
2019-04-11T07:11:31.962Z,980.00
2019-04-11T07:12:31.084Z,1008.00
2019-04-11T07:13:31.081Z,1044.00
2019-04-11T07:14:31.252Z,1064.00
2019-04-11T07:15:31.548Z,1076.00
2019-04-11T07:16:31.039Z,1120.00
2019-04-11T07:17:31.773Z,1216.00
2019-04-11T07:18:31.264Z,1324.00
2019-04-11T07:19:31.068Z,1368.00
2019-04-11T07:20:31.415Z,1316.00
2019-04-11T07:21:31.081Z,1292.00
2019-04-11T07:22:30.987Z,1224.00
2019-04-11T07:23:30.966Z,1112.00
2019-04-11T07:24:30.962Z,996.00
2019-04-11T07:25:31.111Z,952.00
2019-04-11T07:26:30.970Z,936.00
2019-04-11T07:27:30.949Z,932.00
2019-04-11T07:28:31.491Z,880.00
2019-04-11T07:29:31.533Z,896.00
2019-04-11T07:30:31.097Z,904.00
2019-04-11T07:31:31.987Z,952.00
2019-04-11T07:32:30.903Z,1028.00
2019-04-11T07:33:31.248Z,1088.00
2019-04-11T07:34:33.126Z,1088.00
2019-04-11T07:35:30.843Z,1128.00
2019-04-11T07:36:31.645Z,1180.00
2019-04-11T07:37:30.814Z,1220.00
2019-04-11T07:38:32.042Z,1196.00
2019-04-11T07:39:31.149Z,1156.00
2019-04-11T07:40:31.468Z,1148.00
2019-04-11T07:41:31.856Z,1144.00
2019-04-11T07:42:33.454Z,1184.00
2019-04-11T07:43:31.274Z,1220.00
2019-04-11T07:44:32.163Z,1188.00
2019-04-11T07:45:30.815Z,1172.00
2019-04-11T07:46:30.829Z,1156.00
2019-04-11T07:47:30.711Z,1144.00
2019-04-11T07:48:30.707Z,1096.00
2019-04-11T07:49:30.776Z,1032.00
2019-04-11T07:50:31.186Z,1056.00
2019-04-11T07:51:30.708Z,1076.00
2019-04-11T07:52:32.946Z,1028.00
2019-04-11T07:53:33.477Z,960.00
2019-04-11T07:54:30.643Z,928.00
2019-04-11T07:55:30.666Z,900.00
2019-04-11T07:56:30.635Z,864.00
2019-04-11T07:57:30.743Z,896.00
2019-04-11T07:58:30.876Z,928.00
2019-04-11T07:59:31.590Z,936.00
2019-04-11T08:00:38.576Z,964.00
2019-04-11T08:01:31.701Z,1052.00
2019-04-11T08:02:31.308Z,1052.00
2019-04-11T08:03:30.607Z,1064.00
2019-04-11T08:04:30.511Z,1108.00
2019-04-11T08:05:30.525Z,1148.00
2019-04-11T08:06:31.070Z,1180.00
2019-04-11T08:07:30.524Z,1240.00
2019-04-11T08:08:30.513Z,1296.00
2019-04-11T08:09:31.237Z,1284.00
2019-04-11T08:10:30.440Z,1268.00
2019-04-11T08:11:31.660Z,1200.00
2019-04-11T08:12:31.694Z,1192.00
2019-04-11T08:13:30.472Z,1148.00
2019-04-11T08:14:30.802Z,1072.00
2019-04-11T08:15:31.480Z,1056.00
2019-04-11T08:16:30.842Z,1080.00
2019-04-11T08:17:36.804Z,1104.00
2019-04-11T08:18:31.390Z,1140.00
2019-04-11T08:19:31.074Z,1200.00
2019-04-11T08:20:31.200Z,1164.00
2019-04-11T08:21:32.875Z,1136.00
2019-04-11T08:22:30.700Z,1184.00
2019-04-11T08:23:30.330Z,1240.00
2019-04-11T08:24:30.310Z,1284.00
2019-04-11T08:25:31.432Z,1300.00
2019-04-11T08:26:30.886Z,1340.00
2019-04-11T08:27:30.270Z,1384.00
2019-04-11T08:28:30.996Z,1408.00
2019-04-11T08:29:30.567Z,1448.00
2019-04-11T08:30:30.867Z,1408.00
2019-04-11T08:31:30.734Z,1372.00
2019-04-11T08:32:30.239Z,1356.00
2019-04-11T08:33:30.913Z,1404.00
2019-04-11T08:34:31.151Z,1436.00
2019-04-11T08:35:30.414Z,1432.00
2019-04-11T08:36:30.177Z,1416.00
2019-04-11T08:37:30.162Z,1428.00
2019-04-11T08:38:30.143Z,1412.00
2019-04-11T08:39:31.198Z,1412.00
2019-04-11T08:40:30.123Z,1384.00
2019-04-11T08:41:30.144Z,1348.00
2019-04-11T08:42:30.115Z,1312.00
2019-04-11T08:43:31.144Z,1304.00
2019-04-11T08:44:30.140Z,1364.00
2019-04-11T08:45:30.054Z,1456.00
2019-04-11T08:46:30.924Z,1508.00
2019-04-11T08:47:41.568Z,1508.00
2019-04-11T08:48:31.064Z,1488.00
2019-04-11T08:49:31.698Z,1432.00
2019-04-11T08:50:30.329Z,1376.00
2019-04-11T08:51:29.990Z,1328.00
2019-04-11T08:52:29.997Z,1272.00
2019-04-11T08:53:30.883Z,1212.00
2019-04-11T08:54:29.974Z,1152.00
2019-04-11T08:55:43.022Z,1088.00
2019-04-11T08:56:31.351Z,1064.00
2019-04-11T08:57:29.933Z,1040.00
2019-04-11T08:58:30.947Z,1036.00
2019-04-11T08:59:30.196Z,1080.00
2019-04-11T09:00:31.285Z,1112.00
2019-04-11T09:01:29.923Z,1132.00
2019-04-11T09:02:31.061Z,1192.00
2019-04-11T09:03:29.856Z,1268.00
2019-04-11T09:04:30.198Z,1332.00
2019-04-11T09:05:31.187Z,1380.00
2019-04-11T09:06:30.588Z,1428.00
2019-04-11T09:07:29.804Z,1492.00
2019-04-11T09:08:30.098Z,1552.00
2019-04-11T09:09:29.860Z,1624.00
2019-04-11T09:10:29.809Z,1716.00
2019-04-11T09:11:30.831Z,1812.00
2019-04-11T09:12:30.834Z,1880.00
2019-04-11T09:13:29.736Z,1924.00
2019-04-11T09:14:30.514Z,1940.00
2019-04-11T09:15:29.723Z,1948.00
2019-04-11T09:16:29.866Z,1976.00
2019-04-11T09:17:30.336Z,1984.00
2019-04-11T09:18:30.261Z,2016.00
2019-04-11T09:19:30.628Z,2092.00
2019-04-11T09:20:29.890Z,2116.00
2019-04-11T09:21:30.409Z,2128.00
2019-04-11T09:22:29.678Z,2136.00
2019-04-11T09:23:30.030Z,2164.00
2019-04-11T09:24:30.487Z,2204.00
2019-04-11T09:25:30.501Z,2224.00
2019-04-11T09:26:29.787Z,2260.00
2019-04-11T09:27:30.969Z,2272.00
2019-04-11T09:28:29.594Z,2280.00
2019-04-11T09:29:30.427Z,2236.00
2019-04-11T09:30:30.564Z,2200.00
2019-04-11T09:31:29.685Z,2164.00
2019-04-11T09:32:29.560Z,2136.00
2019-04-11T09:33:29.518Z,2088.00
2019-04-11T09:34:30.176Z,2028.00
2019-04-11T09:35:29.552Z,1996.00
2019-04-11T09:36:30.598Z,1984.00
2019-04-11T09:37:29.637Z,1968.00
2019-04-11T09:38:30.531Z,1968.00
2019-04-11T09:39:29.462Z,1968.00
2019-04-11T09:40:29.909Z,1952.00
2019-04-11T09:41:30.187Z,1960.00
2019-04-11T09:42:30.355Z,1988.00
2019-04-11T09:43:29.406Z,2044.00
2019-04-11T09:44:29.407Z,2096.00
2019-04-11T09:45:29.813Z,2156.00
2019-04-11T09:46:30.291Z,2228.00
2019-04-11T09:47:30.462Z,2304.00
2019-04-11T09:48:29.473Z,2348.00
2019-04-11T09:49:29.342Z,2368.00
2019-04-11T09:50:29.420Z,2336.00
2019-04-11T09:51:29.612Z,2228.00
2019-04-11T09:52:29.327Z,2120.00
2019-04-11T09:53:30.296Z,2104.00
2019-04-11T09:54:30.293Z,2152.00
2019-04-11T09:55:29.299Z,2164.00
2019-04-11T09:56:29.309Z,2184.00
2019-04-11T09:57:29.266Z,2184.00
2019-04-11T09:58:29.519Z,2176.00
2019-04-11T09:59:29.494Z,2200.00
2019-04-11T10:00:30.439Z,2216.00
2019-04-11T10:01:29.284Z,2216.00
2019-04-11T10:02:29.195Z,2240.00
2019-04-11T10:03:29.206Z,2240.00
2019-04-11T10:04:29.771Z,2236.00
2019-04-11T10:05:30.016Z,2224.00
2019-04-11T10:06:30.188Z,2228.00
2019-04-11T10:07:30.112Z,2244.00
2019-04-11T10:08:29.136Z,2300.00
2019-04-11T10:09:30.242Z,2324.00
2019-04-11T10:10:29.165Z,2304.00
2019-04-11T10:11:30.261Z,2280.00
2019-04-11T10:12:29.713Z,2240.00
2019-04-11T10:13:29.074Z,2208.00
2019-04-11T10:14:29.478Z,2216.00
2019-04-11T10:15:29.705Z,2232.00
2019-04-11T10:16:29.103Z,2280.00
2019-04-11T10:17:29.690Z,2352.00
2019-04-11T10:18:33.719Z,2428.00
2019-04-11T10:19:30.025Z,2524.00
2019-04-11T10:20:29.004Z,2612.00
2019-04-11T10:21:29.071Z,2676.00
2019-04-11T10:22:29.218Z,2716.00
2019-04-11T10:23:29.239Z,2756.00
2019-04-11T10:24:30.425Z,2732.00
2019-04-11T10:25:30.206Z,2680.00
2019-04-11T10:26:28.943Z,2668.00
2019-04-11T10:27:28.959Z,2724.00
2019-04-11T10:28:29.489Z,2764.00
2019-04-11T10:29:30.424Z,2752.00
2019-04-11T10:30:29.373Z,2720.00
2019-04-11T10:31:28.875Z,2712.00
2019-04-11T10:32:28.905Z,2728.00
2019-04-11T10:33:28.979Z,2776.00
2019-04-11T10:34:29.915Z,2788.00
2019-04-11T10:35:28.836Z,2780.00
2019-04-11T10:36:29.473Z,2780.00
2019-04-11T10:37:28.832Z,2760.00
2019-04-11T10:38:28.840Z,2724.00
2019-04-11T10:39:29.173Z,2716.00
2019-04-11T10:40:28.776Z,2692.00
2019-04-11T10:41:28.768Z,2708.00
2019-04-11T10:42:28.784Z,2740.00
2019-04-11T10:43:28.762Z,2780.00
2019-04-11T10:44:29.811Z,2756.00
2019-04-11T10:45:28.889Z,2736.00
2019-04-11T10:46:28.757Z,2688.00
2019-04-11T10:47:29.196Z,2656.00
2019-04-11T10:48:35.612Z,2636.00
2019-04-11T10:49:30.394Z,2628.00
2019-04-11T10:50:28.686Z,2592.00
2019-04-11T10:51:29.571Z,2652.00
2019-04-11T10:52:28.799Z,2684.00
2019-04-11T10:53:28.640Z,2728.00
2019-04-11T10:54:29.676Z,2748.00
2019-04-11T10:55:29.399Z,2728.00
2019-04-11T10:56:28.614Z,2772.00
2019-04-11T10:57:29.829Z,2744.00
2019-04-11T10:58:28.873Z,2712.00
2019-04-11T10:59:28.586Z,2676.00
2019-04-11T11:00:29.382Z,2652.00
2019-04-11T11:01:29.460Z,2596.00
2019-04-11T11:02:43.440Z,2544.00
2019-04-11T11:03:29.077Z,2552.00
2019-04-11T11:04:28.644Z,2632.00
2019-04-11T11:05:28.497Z,2652.00
2019-04-11T11:06:29.576Z,2620.00
2019-04-11T11:07:28.706Z,2588.00
2019-04-11T11:08:29.143Z,2564.00
2019-04-11T11:09:28.485Z,2604.00
2019-04-11T11:10:28.436Z,2652.00
2019-04-11T11:11:28.436Z,2696.00
2019-04-11T11:12:29.633Z,2720.00
2019-04-11T11:13:28.457Z,2680.00
2019-04-11T11:14:28.987Z,2652.00
2019-04-11T11:15:28.405Z,2608.00
2019-04-11T11:16:30.558Z,2640.00
2019-04-11T11:17:48.255Z,2652.00
2019-04-11T11:18:49.106Z,2636.00
2019-04-11T11:19:45.566Z,2612.00
2019-04-11T11:20:34.714Z,2648.00
2019-04-11T11:21:33.257Z,2676.00
2019-04-11T11:22:33.150Z,2732.00
2019-04-11T11:23:29.334Z,2756.00
2019-04-11T11:24:28.330Z,2776.00
2019-04-11T11:25:28.291Z,2804.00
2019-04-11T11:26:29.369Z,2788.00
2019-04-11T11:27:28.306Z,2816.00
2019-04-11T11:28:28.244Z,2712.00
2019-04-11T11:29:28.933Z,2672.00
2019-04-11T11:30:29.251Z,2624.00
2019-04-11T11:31:28.240Z,2524.00
2019-04-11T11:32:29.375Z,2432.00
2019-04-11T11:33:28.192Z,2388.00
2019-04-11T11:34:28.459Z,2360.00
2019-04-11T11:35:32.067Z,2268.00
2019-04-11T11:36:32.090Z,2224.00
2019-04-11T11:37:29.191Z,2224.00
2019-04-11T11:38:28.229Z,2184.00
2019-04-11T11:39:28.118Z,2184.00
2019-04-11T11:40:28.127Z,2192.00
2019-04-11T11:41:28.127Z,2204.00
2019-04-11T11:42:28.270Z,2188.00
2019-04-11T11:43:28.143Z,2132.00
2019-04-11T11:44:28.656Z,2092.00
2019-04-11T11:45:28.055Z,2024.00
2019-04-11T11:46:30.969Z,1988.00
2019-04-11T11:47:28.033Z,1984.00
2019-04-11T11:48:28.104Z,1972.00
2019-04-11T11:49:42.449Z,2004.00
2019-04-11T11:50:31.496Z,2016.00
2019-04-11T11:51:29.617Z,2056.00
2019-04-11T11:52:31.908Z,2072.00
2019-04-11T11:53:29.964Z,2028.00
2019-04-11T11:54:29.280Z,1964.00
2019-04-11T11:55:27.953Z,1896.00
2019-04-11T11:56:27.975Z,1864.00
2019-04-11T11:57:28.821Z,1820.00
2019-04-11T11:58:27.978Z,1728.00
2019-04-11T11:59:30.192Z,1728.00
2019-04-11T12:00:29.262Z,1704.00
2019-04-11T12:01:27.898Z,1732.00
2019-04-11T12:02:28.576Z,1740.00
2019-04-11T12:03:29.937Z,1740.00
2019-04-11T12:04:27.869Z,1708.00
2019-04-11T12:05:29.408Z,1716.00
2019-04-11T12:06:29.190Z,1712.00
2019-04-11T12:07:28.638Z,1700.00
2019-04-11T12:08:28.676Z,1696.00
2019-04-11T12:09:28.741Z,1664.00
2019-04-11T12:10:28.093Z,1680.00
2019-04-11T12:11:28.329Z,1680.00
2019-04-11T12:12:27.870Z,1612.00
2019-04-11T12:13:28.339Z,1684.00
2019-04-11T12:14:27.774Z,1924.00
2019-04-11T12:15:28.835Z,1912.00
2019-04-11T12:16:28.008Z,2008.00
2019-04-11T12:17:31.765Z,2024.00
2019-04-11T12:18:28.691Z,2036.00
2019-04-11T12:19:28.889Z,2080.00
2019-04-11T12:20:27.663Z,2060.00
2019-04-11T12:21:28.498Z,2168.00
2019-04-11T12:22:28.480Z,2212.00
2019-04-11T12:23:27.672Z,2240.00
2019-04-11T12:24:27.894Z,2092.00
2019-04-11T12:25:27.606Z,2040.00
2019-04-11T12:26:30.465Z,2044.00
2019-04-11T12:27:28.881Z,2164.00
2019-04-11T12:28:27.735Z,2280.00
2019-04-11T12:29:30.121Z,2504.00
2019-04-11T12:30:30.590Z,2576.00
2019-04-11T12:31:31.187Z,2680.00
2019-04-11T12:32:28.446Z,2768.00
2019-04-11T12:33:27.757Z,2824.00
2019-04-11T12:34:27.501Z,2872.00
2019-04-11T12:35:28.822Z,2808.00
2019-04-11T12:36:28.456Z,2780.00
2019-04-11T12:37:27.566Z,2580.00
2019-04-11T12:38:27.513Z,2352.00